createdAt,value
2023-01-28T00:02:02.177Z,2.75
2023-01-28T00:04:29.044Z,5.75
2023-01-28T00:06:57.354Z,4.00
2023-01-28T00:09:24.538Z,5.00
2023-01-28T00:11:51.501Z,4.00
2023-01-28T00:14:18.321Z,5.00
2023-01-28T00:16:45.453Z,3.75
2023-01-28T00:19:12.193Z,4.25
2023-01-28T00:21:39.045Z,5.00
2023-01-28T00:24:08.266Z,4.75
2023-01-28T00:26:36.273Z,4.50
2023-01-28T00:29:03.553Z,5.75
2023-01-28T00:31:30.472Z,6.00
2023-01-28T00:33:57.917Z,4.25
2023-01-28T00:36:26.673Z,5.00
2023-01-28T00:38:55.858Z,4.75
2023-01-28T00:41:27.682Z,4.00
2023-01-28T00:43:54.973Z,3.00
2023-01-28T00:46:22.830Z,3.00
2023-01-28T00:48:49.954Z,5.00
2023-01-28T00:51:19.612Z,3.75
2023-01-28T00:53:47.251Z,5.25
2023-01-28T00:56:16.828Z,5.00
2023-01-28T00:58:45.752Z,4.25
2023-01-28T01:01:15.876Z,5.50
2023-01-28T01:03:43.240Z,4.00
2023-01-28T01:06:12.643Z,5.75
2023-01-28T01:08:39.910Z,5.00
2023-01-28T01:11:09.639Z,6.50
2023-01-28T01:13:37.128Z,5.50
2023-01-28T01:16:09.441Z,6.25
2023-01-28T01:18:37.415Z,5.75
2023-01-28T01:21:08.442Z,5.00
2023-01-28T01:23:35.449Z,4.50
2023-01-28T01:26:03.518Z,6.25
2023-01-28T01:28:30.420Z,5.00
2023-01-28T01:31:02.223Z,5.00
2023-01-28T01:33:31.926Z,5.50
2023-01-28T01:35:59.862Z,3.00
2023-01-28T01:38:28.482Z,6.00
2023-01-28T01:40:57.696Z,5.75
2023-01-28T01:43:24.565Z,6.00
2023-01-28T01:45:59.063Z,3.50
2023-01-28T01:48:33.619Z,7.00
2023-01-28T01:51:05.821Z,7.00
2023-01-28T01:53:33.075Z,8.50
2023-01-28T01:56:06.416Z,5.25
2023-01-28T01:58:40.733Z,6.25
2023-01-28T02:01:08.332Z,6.25
2023-01-28T02:03:46.711Z,6.50
2023-01-28T02:06:14.365Z,6.75
2023-01-28T02:08:45.327Z,7.00
2023-01-28T02:11:15.502Z,6.25
2023-01-28T02:13:50.852Z,5.25
2023-01-28T02:16:18.752Z,6.00
2023-01-28T02:18:47.026Z,5.75
2023-01-28T02:21:54.686Z,6.00
2023-01-28T02:24:54.162Z,8.00
2023-01-28T02:27:33.510Z,5.25
2023-01-28T02:30:15.218Z,6.00
2023-01-28T02:32:53.099Z,6.00
2023-01-28T02:35:31.845Z,6.00
2023-01-28T02:38:07.206Z,5.50
2023-01-28T02:40:41.443Z,4.50
2023-01-28T02:43:08.405Z,4.50
2023-01-28T02:45:36.805Z,6.00
2023-01-28T02:48:04.032Z,6.25
2023-01-28T02:50:43.680Z,6.25
2023-01-28T02:53:22.586Z,6.25
2023-01-28T02:56:00.742Z,4.25
2023-01-28T02:58:40.385Z,6.75
2023-01-28T03:01:23.525Z,5.25
2023-01-28T03:04:03.275Z,6.50
2023-01-28T03:06:37.653Z,4.25
2023-01-28T03:09:09.686Z,6.50
2023-01-28T03:11:42.081Z,6.00
2023-01-28T03:14:12.098Z,8.50
2023-01-28T03:16:41.972Z,6.50
2023-01-28T03:19:10.704Z,7.00
2023-01-28T03:21:44.686Z,7.25
2023-01-28T03:24:17.927Z,6.50
2023-01-28T03:26:58.198Z,7.00
2023-01-28T03:29:30.205Z,5.00
2023-01-28T03:32:01.273Z,7.75
2023-01-28T03:34:28.622Z,8.00
2023-01-28T03:36:56.995Z,6.75
2023-01-28T03:39:56.319Z,7.25
2023-01-28T03:42:23.218Z,5.00
2023-01-28T03:45:04.962Z,8.75
2023-01-28T03:47:34.132Z,6.00
2023-01-28T03:50:03.841Z,7.25
2023-01-28T03:52:37.153Z,7.25
2023-01-28T03:55:16.990Z,6.00
2023-01-28T03:57:43.903Z,7.75
2023-01-28T04:00:26.042Z,6.00
2023-01-28T04:02:56.553Z,8.75
2023-01-28T04:05:24.579Z,6.25
2023-01-28T04:07:54.910Z,7.50
2023-01-28T04:10:34.912Z,8.50
2023-01-28T04:13:12.364Z,7.75
2023-01-28T04:15:39.975Z,8.00
2023-01-28T04:18:08.114Z,9.25
2023-01-28T04:20:35.188Z,8.75
2023-01-28T04:23:02.003Z,9.75
2023-01-28T04:25:29.555Z,9.00
2023-01-28T04:27:56.693Z,9.75
2023-01-28T04:30:26.717Z,10.00
2023-01-28T04:33:24.267Z,11.50
2023-01-28T04:35:51.023Z,9.25
2023-01-28T04:38:25.141Z,10.00
2023-01-28T04:41:05.554Z,9.25
2023-01-28T04:43:34.753Z,10.50
2023-01-28T04:46:27.793Z,10.00
2023-01-28T04:49:22.581Z,12.33
2023-01-28T04:52:12.636Z,11.25
2023-01-28T04:54:56.473Z,9.00
2023-01-28T04:57:24.203Z,9.25
2023-01-28T04:59:51.617Z,10.25
2023-01-28T05:02:18.433Z,8.25
2023-01-28T05:04:48.573Z,9.75
2023-01-28T05:07:35.233Z,9.00
2023-01-28T05:10:02.170Z,10.50
2023-01-28T05:12:30.109Z,10.25
2023-01-28T05:14:57.216Z,8.75
2023-01-28T05:17:24.195Z,10.25
2023-01-28T05:19:52.865Z,8.50
2023-01-28T05:22:23.238Z,8.25
2023-01-28T05:25:10.251Z,9.00
2023-01-28T05:27:37.126Z,9.50
2023-01-28T05:30:05.588Z,8.50
2023-01-28T05:32:33.013Z,12.25
2023-01-28T05:35:01.276Z,12.25
2023-01-28T05:37:28.190Z,12.25
2023-01-28T05:39:56.605Z,15.67
2023-01-28T05:42:23.666Z,13.25
2023-01-28T05:44:55.376Z,13.00
2023-01-28T05:47:40.789Z,11.00
2023-01-28T05:50:24.769Z,10.50
2023-01-28T05:53:10.887Z,13.00
2023-01-28T05:55:40.121Z,10.50
2023-01-28T05:58:06.965Z,15.00
2023-01-28T06:00:34.519Z,7.00
2023-01-28T06:03:03.932Z,12.75
2023-01-28T06:05:33.613Z,12.00
2023-01-28T06:08:01.232Z,13.25
2023-01-28T06:10:28.178Z,12.25
2023-01-28T06:12:55.734Z,13.50
2023-01-28T06:15:31.799Z,12.00
2023-01-28T06:18:05.680Z,12.25
2023-01-28T06:20:35.653Z,11.00
2023-01-28T06:23:02.491Z,11.75
2023-01-28T06:25:29.369Z,11.25
2023-01-28T06:28:00.687Z,11.50
2023-01-28T06:30:27.473Z,12.00
2023-01-28T06:32:55.288Z,11.25
2023-01-28T06:35:22.710Z,12.75
2023-01-28T06:37:52.758Z,12.00
2023-01-28T06:40:20.082Z,11.25
2023-01-28T06:42:46.886Z,14.25
2023-01-28T06:45:13.869Z,13.00
2023-01-28T06:47:40.776Z,17.33
2023-01-28T06:50:09.403Z,16.67
2023-01-28T06:52:36.180Z,15.33
2023-01-28T06:55:05.400Z,14.33
2023-01-28T06:57:32.162Z,15.00
2023-01-28T06:59:58.909Z,12.00
2023-01-28T07:02:27.698Z,9.00
2023-01-28T07:04:54.590Z,13.00
2023-01-28T07:07:21.463Z,9.00
2023-01-28T07:09:48.277Z,9.00
2023-01-28T07:12:16.459Z,11.75
2023-01-28T07:14:43.267Z,12.00
2023-01-28T07:17:10.164Z,8.25
2023-01-28T07:19:37.462Z,11.00
2023-01-28T07:22:04.340Z,11.25
2023-01-28T07:24:32.084Z,13.25
2023-01-28T07:26:59.410Z,10.75
2023-01-28T07:29:28.612Z,14.00
2023-01-28T07:31:55.449Z,11.75
2023-01-28T07:34:22.191Z,12.00
2023-01-28T07:36:49.023Z,14.50
2023-01-28T07:39:15.830Z,10.25
2023-01-28T07:41:42.639Z,11.75
2023-01-28T07:44:10.895Z,6.75
2023-01-28T07:46:39.390Z,9.25
2023-01-28T07:49:06.377Z,12.50
2023-01-28T07:51:33.157Z,14.00
2023-01-28T07:54:00.040Z,12.00
2023-01-28T07:56:26.878Z,14.00
2023-01-28T07:58:54.000Z,14.25
2023-01-28T08:01:20.808Z,12.25
2023-01-28T08:03:49.226Z,9.50
2023-01-28T08:06:16.014Z,14.00
2023-01-28T08:08:42.906Z,14.75
2023-01-28T08:11:10.387Z,13.25
2023-01-28T08:13:37.418Z,13.50
2023-01-28T08:16:05.384Z,16.50
2023-01-28T08:18:32.248Z,13.00
2023-01-28T08:21:00.433Z,13.25
2023-01-28T08:23:27.731Z,14.75
2023-01-28T08:25:55.172Z,13.75
2023-01-28T08:28:22.508Z,18.25
2023-01-28T08:30:49.579Z,14.75
2023-01-28T08:33:19.072Z,15.25
2023-01-28T08:35:46.722Z,18.25
2023-01-28T08:38:15.482Z,0.00
2023-01-28T08:40:42.315Z,15.75
2023-01-28T08:43:09.447Z,12.25
2023-01-28T08:45:36.352Z,16.75
2023-01-28T08:48:05.883Z,14.75
2023-01-28T08:50:36.362Z,14.75
2023-01-28T08:53:06.629Z,14.50
2023-01-28T08:55:34.966Z,25.00
2023-01-28T08:58:04.062Z,16.50
2023-01-28T09:00:31.531Z,19.50
2023-01-28T09:02:58.320Z,17.75
2023-01-28T09:05:25.129Z,18.75
2023-01-28T09:07:51.938Z,10.00
2023-01-28T09:10:19.298Z,18.50
2023-01-28T09:12:47.521Z,12.75
2023-01-28T09:15:14.402Z,14.25
2023-01-28T09:17:41.131Z,18.00
2023-01-28T09:20:10.038Z,20.75
2023-01-28T09:22:36.930Z,11.75
2023-01-28T09:25:04.487Z,17.50
2023-01-28T09:27:32.048Z,22.25
2023-01-28T09:30:00.308Z,14.50
2023-01-28T09:32:27.103Z,14.50
2023-01-28T09:34:53.909Z,14.25
2023-01-28T09:37:20.691Z,15.00
2023-01-28T09:39:47.431Z,15.00
2023-01-28T09:42:46.595Z,15.25
2023-01-28T09:45:21.916Z,13.25
2023-01-28T09:47:53.064Z,10.50
2023-01-28T09:50:30.946Z,13.50
2023-01-28T09:53:07.947Z,14.50
2023-01-28T09:55:39.174Z,13.50
2023-01-28T09:58:11.751Z,14.50
2023-01-28T10:00:51.284Z,14.50
2023-01-28T10:03:48.063Z,10.00
2023-01-28T10:06:28.266Z,19.00
2023-01-28T10:09:25.271Z,15.75
2023-01-28T10:12:23.337Z,16.25
2023-01-28T10:15:20.326Z,15.25
2023-01-28T10:18:07.213Z,11.25
2023-01-28T10:20:48.893Z,9.25
2023-01-28T10:23:24.375Z,12.75
2023-01-28T10:25:51.232Z,9.00
2023-01-28T10:28:23.987Z,12.75
2023-01-28T10:30:52.168Z,11.25
2023-01-28T10:33:35.463Z,12.25
2023-01-28T10:36:03.633Z,11.25
2023-01-28T10:38:31.984Z,13.25
2023-01-28T10:41:03.604Z,8.50
2023-01-28T10:43:34.139Z,10.25
2023-01-28T10:46:09.710Z,14.50
2023-01-28T10:48:45.996Z,12.25
2023-01-28T10:51:13.236Z,13.50
2023-01-28T10:53:43.447Z,9.25
2023-01-28T10:56:15.954Z,14.00
2023-01-28T10:58:58.782Z,11.00
2023-01-28T11:01:37.688Z,10.00
2023-01-28T11:04:14.605Z,10.75
2023-01-28T11:06:41.535Z,11.25
2023-01-28T11:09:22.203Z,10.50
2023-01-28T11:11:49.065Z,13.00
2023-01-28T11:14:22.549Z,10.75
2023-01-28T11:16:52.898Z,10.75
2023-01-28T11:19:29.283Z,10.00
2023-01-28T11:21:57.847Z,11.25
2023-01-28T11:24:30.644Z,11.50
2023-01-28T11:27:10.745Z,13.00
2023-01-28T11:29:39.989Z,17.00
2023-01-28T11:32:18.905Z,12.50
2023-01-28T11:34:52.830Z,12.00
2023-01-28T11:37:24.523Z,13.25
2023-01-28T11:40:14.849Z,13.75
2023-01-28T11:42:41.973Z,15.00
2023-01-28T11:45:16.558Z,14.25
2023-01-28T11:48:03.648Z,11.50
2023-01-28T11:50:45.804Z,11.50
2023-01-28T11:53:42.222Z,13.75
2023-01-28T11:56:32.227Z,9.00
2023-01-28T11:59:22.388Z,10.25
2023-01-28T12:02:02.794Z,11.75
2023-01-28T12:05:01.446Z,8.25
2023-01-28T12:07:43.682Z,11.50
2023-01-28T12:10:29.228Z,11.50
2023-01-28T12:13:19.085Z,6.00
2023-01-28T12:16:08.627Z,6.50
2023-01-28T12:19:17.931Z,11.75
2023-01-28T12:22:07.598Z,12.75
2023-01-28T12:24:55.804Z,10.50
2023-01-28T12:27:44.105Z,11.75
2023-01-28T12:30:31.342Z,8.75
2023-01-28T12:33:36.799Z,10.00
2023-01-28T12:36:16.185Z,11.00
2023-01-28T12:38:59.601Z,11.25
2023-01-28T12:41:34.649Z,9.25
2023-01-28T12:44:06.017Z,8.00
2023-01-28T12:46:45.122Z,10.75
2023-01-28T12:49:20.888Z,13.00
2023-01-28T12:52:01.557Z,8.50
2023-01-28T12:54:39.113Z,10.00
2023-01-28T12:57:16.665Z,8.50
2023-01-28T12:59:51.680Z,9.75
2023-01-28T13:02:30.585Z,8.00
2023-01-28T13:05:09.168Z,8.00
2023-01-28T13:07:44.142Z,8.75
2023-01-28T13:10:28.965Z,8.00
2023-01-28T13:12:59.248Z,9.00
2023-01-28T13:15:26.468Z,8.00
2023-01-28T13:17:59.518Z,7.00
2023-01-28T13:20:37.484Z,5.50
2023-01-28T13:23:22.941Z,6.75
2023-01-28T13:25:52.542Z,7.25
2023-01-28T13:28:29.808Z,5.25
2023-01-28T13:31:06.224Z,8.75
2023-01-28T13:33:36.407Z,11.50
2023-01-28T13:36:25.721Z,9.00
2023-01-28T13:39:02.597Z,8.25
2023-01-28T13:41:41.595Z,8.00
2023-01-28T13:44:27.639Z,7.00
2023-01-28T13:46:59.358Z,9.50
2023-01-28T13:49:37.607Z,9.25
2023-01-28T13:52:15.244Z,9.00
2023-01-28T13:54:51.717Z,9.50
2023-01-28T13:58:10.207Z,8.75
2023-01-28T14:01:08.793Z,7.50
2023-01-28T14:04:07.257Z,5.75
2023-01-28T14:07:17.413Z,8.50
2023-01-28T14:10:16.995Z,8.00
2023-01-28T14:13:21.739Z,6.75
2023-01-28T14:16:28.507Z,8.25
2023-01-28T14:19:00.998Z,10.25
2023-01-28T14:21:32.440Z,6.50
2023-01-28T14:24:00.568Z,8.50
2023-01-28T14:26:52.213Z,7.50
2023-01-28T14:29:56.460Z,9.75
2023-01-28T14:32:30.111Z,8.00
2023-01-28T14:35:04.028Z,6.50
2023-01-28T14:37:36.277Z,8.75
2023-01-28T14:40:07.907Z,9.75
2023-01-28T14:42:43.101Z,8.00
2023-01-28T14:45:45.066Z,9.75
2023-01-28T14:48:46.173Z,7.00
2023-01-28T14:51:41.354Z,8.25
2023-01-28T14:54:36.867Z,10.25
2023-01-28T14:57:41.977Z,6.00
2023-01-28T15:00:24.387Z,9.00
2023-01-28T15:02:55.113Z,9.75
2023-01-28T15:05:26.971Z,5.25
2023-01-28T15:08:00.019Z,7.00
2023-01-28T15:10:39.498Z,8.00
2023-01-28T15:13:17.334Z,9.00
2023-01-28T15:15:57.140Z,7.00
2023-01-28T15:18:42.749Z,7.00
2023-01-28T15:21:19.256Z,5.00
2023-01-28T15:23:56.672Z,8.00
2023-01-28T15:26:51.107Z,8.00
2023-01-28T15:29:40.296Z,10.75
2023-01-28T15:32:25.630Z,7.25
2023-01-28T15:34:59.525Z,7.50
2023-01-28T15:37:35.122Z,7.25
2023-01-28T15:40:20.559Z,7.50
2023-01-28T15:42:55.549Z,8.00
2023-01-28T15:45:29.597Z,6.00
2023-01-28T15:48:09.074Z,8.50
2023-01-28T15:50:42.397Z,6.00
2023-01-28T15:53:15.032Z,7.00
2023-01-28T15:55:49.055Z,5.00
2023-01-28T15:58:29.728Z,6.00
2023-01-28T16:01:19.378Z,7.00
2023-01-28T16:04:03.311Z,6.00
2023-01-28T16:06:41.707Z,7.00
2023-01-28T16:09:25.929Z,6.75
2023-01-28T16:12:04.109Z,7.00
2023-01-28T16:14:43.154Z,8.25
2023-01-28T16:17:16.768Z,7.00
2023-01-28T16:19:48.773Z,7.25
2023-01-28T16:22:23.055Z,8.00
2023-01-28T16:24:54.002Z,7.00
2023-01-28T16:27:24.017Z,6.50
2023-01-28T16:29:50.925Z,7.00
2023-01-28T16:32:35.408Z,8.75
2023-01-28T16:35:03.043Z,7.75
2023-01-28T16:37:30.219Z,8.00
2023-01-28T16:40:00.354Z,8.00
2023-01-28T16:42:30.923Z,8.00
2023-01-28T16:44:58.474Z,10.00
2023-01-28T16:47:25.360Z,8.00
2023-01-28T16:49:52.473Z,6.00
2023-01-28T16:52:19.332Z,7.00
2023-01-28T16:54:47.268Z,9.00
2023-01-28T16:57:18.874Z,7.50
2023-01-28T16:59:46.089Z,7.25
2023-01-28T17:02:16.142Z,8.50
2023-01-28T17:04:43.418Z,8.50
2023-01-28T17:07:10.758Z,9.75
2023-01-28T17:09:37.644Z,7.00
2023-01-28T17:12:10.675Z,6.75
2023-01-28T17:14:38.904Z,7.00
2023-01-28T17:17:05.802Z,9.50
2023-01-28T17:19:32.770Z,6.75
2023-01-28T17:21:59.615Z,8.25
2023-01-28T17:24:29.508Z,7.25
2023-01-28T17:26:56.655Z,7.25
2023-01-28T17:29:23.518Z,8.25
2023-01-28T17:31:51.932Z,9.00
2023-01-28T17:34:18.834Z,5.00
2023-01-28T17:36:45.663Z,8.25
2023-01-28T17:39:12.540Z,9.75
2023-01-28T17:41:39.503Z,8.00
2023-01-28T17:44:06.637Z,9.50
2023-01-28T17:46:33.653Z,9.00
2023-01-28T17:49:03.570Z,9.25
2023-01-28T17:51:33.143Z,8.00
2023-01-28T17:54:11.875Z,9.50
2023-01-28T17:56:38.971Z,12.00
2023-01-28T17:59:10.548Z,12.50
2023-01-28T18:01:39.950Z,10.50
2023-01-28T18:04:18.161Z,10.25
2023-01-28T18:06:48.076Z,9.50
2023-01-28T18:09:21.351Z,11.25
2023-01-28T18:11:54.189Z,11.00
2023-01-28T18:14:21.569Z,6.25
2023-01-28T18:16:54.038Z,11.75
2023-01-28T18:19:24.335Z,13.00
2023-01-28T18:21:57.360Z,48.00
2023-01-28T18:24:29.528Z,14.00
2023-01-28T18:27:06.384Z,7.00
2023-01-28T18:29:39.560Z,11.00
2023-01-28T18:32:09.523Z,11.50
2023-01-28T18:34:40.019Z,13.75
2023-01-28T18:37:18.112Z,13.25
2023-01-28T18:39:56.329Z,13.50
2023-01-28T18:42:40.989Z,14.50
2023-01-28T18:45:24.941Z,13.00
2023-01-28T18:47:56.035Z,12.75
2023-01-28T18:50:44.950Z,13.25
2023-01-28T18:53:26.110Z,13.25
2023-01-28T18:56:06.078Z,11.50
2023-01-28T18:58:38.851Z,13.50
2023-01-28T19:01:14.292Z,14.50
2023-01-28T19:03:48.266Z,11.25
2023-01-28T19:06:26.252Z,12.50
2023-01-28T19:08:56.680Z,13.00
2023-01-28T19:11:32.271Z,11.25
2023-01-28T19:14:09.231Z,10.75
2023-01-28T19:16:37.425Z,10.50
2023-01-28T19:19:09.432Z,12.75
2023-01-28T19:21:46.210Z,10.00
2023-01-28T19:24:17.761Z,7.33
2023-01-28T19:26:49.490Z,7.25
2023-01-28T19:29:20.347Z,9.75
2023-01-28T19:31:55.526Z,10.33
2023-01-28T19:34:25.704Z,11.75
2023-01-28T19:37:00.335Z,11.25
2023-01-28T19:39:36.154Z,14.50
2023-01-28T19:42:08.959Z,14.75
2023-01-28T19:44:39.785Z,12.00
2023-01-28T19:47:10.635Z,11.50
2023-01-28T19:49:48.317Z,13.00
2023-01-28T19:52:29.503Z,12.75
2023-01-28T19:55:12.105Z,13.25
2023-01-28T19:57:49.181Z,13.00
2023-01-28T20:00:19.315Z,12.50
2023-01-28T20:02:56.191Z,12.00
2023-01-28T20:05:36.385Z,13.75
2023-01-28T20:08:11.880Z,12.75
2023-01-28T20:10:43.975Z,12.50
2023-01-28T20:13:13.661Z,11.25
2023-01-28T20:15:43.803Z,12.25
2023-01-28T20:18:26.309Z,12.00
2023-01-28T20:20:58.465Z,13.50
2023-01-28T20:23:33.662Z,9.75
2023-01-28T20:26:10.080Z,4.50
2023-01-28T20:28:40.876Z,7.00
2023-01-28T20:31:20.504Z,4.00
2023-01-28T20:33:54.748Z,15.33
2023-01-28T20:36:27.046Z,19.67
2023-01-28T20:38:57.775Z,25.67
2023-01-28T20:41:30.433Z,39.33
2023-01-28T20:44:05.260Z,30.67
2023-01-28T20:46:50.191Z,19.33
2023-01-28T20:49:21.371Z,29.00
2023-01-28T20:51:59.114Z,30.67
2023-01-28T20:54:37.172Z,36.33
2023-01-28T20:57:07.684Z,16.67
2023-01-28T20:59:45.738Z,10.25
2023-01-28T21:02:15.888Z,8.33
2023-01-28T21:05:00.159Z,2.75
2023-01-28T21:07:51.221Z,6.00
2023-01-28T21:10:28.507Z,11.75
2023-01-28T21:13:06.011Z,5.50
2023-01-28T21:15:42.787Z,10.00
2023-01-28T21:18:18.579Z,7.00
2023-01-28T21:21:11.178Z,11.00
2023-01-28T21:23:39.141Z,4.25
2023-01-28T21:26:23.036Z,4.75
2023-01-28T21:28:59.468Z,10.00
2023-01-28T21:31:35.571Z,9.75
2023-01-28T21:34:04.629Z,11.25
2023-01-28T21:36:49.722Z,11.75
2023-01-28T21:39:36.299Z,11.75
2023-01-28T21:42:27.194Z,16.67
2023-01-28T21:45:08.718Z,19.33
2023-01-28T21:47:44.839Z,14.00
2023-01-28T21:50:32.912Z,16.33
2023-01-28T21:53:06.843Z,20.33
2023-01-28T21:55:37.068Z,9.75
2023-01-28T21:58:17.483Z,12.33
2023-01-28T22:01:14.289Z,10.33
2023-01-28T22:03:52.942Z,12.67
2023-01-28T22:06:38.421Z,10.25
2023-01-28T22:09:13.097Z,11.00
2023-01-28T22:11:45.624Z,10.67
2023-01-28T22:14:31.821Z,10.25
2023-01-28T22:17:13.035Z,7.33
2023-01-28T22:19:43.310Z,16.00
2023-01-28T22:22:35.076Z,16.00
2023-01-28T22:25:05.482Z,27.33
2023-01-28T22:27:37.214Z,23.00
2023-01-28T22:30:16.620Z,19.00
2023-01-28T22:32:55.373Z,10.33
2023-01-28T22:35:27.947Z,11.50
2023-01-28T22:37:58.195Z,18.67
2023-01-28T22:40:30.003Z,18.00
2023-01-28T22:43:17.232Z,18.67
2023-01-28T22:46:00.101Z,16.00
2023-01-28T22:48:47.207Z,12.67
2023-01-28T22:51:38.110Z,18.33
2023-01-28T22:54:17.863Z,10.75
2023-01-28T22:56:53.982Z,8.00
2023-01-28T22:59:26.283Z,9.00
2023-01-28T23:02:02.542Z,10.00
2023-01-28T23:04:36.147Z,9.50
2023-01-28T23:07:07.316Z,9.67
2023-01-28T23:09:43.712Z,3.00
2023-01-28T23:12:14.821Z,10.67
2023-01-28T23:14:54.152Z,8.75
2023-01-28T23:17:30.991Z,5.33
2023-01-28T23:20:00.407Z,9.00
2023-01-28T23:22:34.415Z,10.00
2023-01-28T23:25:06.103Z,7.00
2023-01-28T23:27:45.033Z,9.00
2023-01-28T23:30:14.828Z,6.00
2023-01-28T23:32:58.667Z,9.25
2023-01-28T23:35:43.037Z,20.33
2023-01-28T23:38:12.684Z,13.00
2023-01-28T23:40:45.010Z,17.00
2023-01-28T23:43:18.036Z,15.00
2023-01-28T23:45:54.755Z,13.50
2023-01-28T23:48:27.538Z,11.67
2023-01-28T23:50:56.410Z,8.25
2023-01-28T23:53:25.773Z,5.00
2023-01-28T23:56:00.245Z,5.75
2023-01-28T23:58:43.331Z,10.50
